Aviation Digital Data Service (ADDS)

Output produced by METARs form (0120 UTC 04 August 2015)
found at http://aviationweather.gov/adds/metars/
 
KAGC 032349Z 0400/0424 26005KT P6SM VCSH FEW017 SCT035 BKN060 
     TEMPO 0400/0402 2SM TSRAGS OVC030CB 
     FM040800 29005KT 2SM BR SKC 
     FM041300 29008KT P6SM SKC 
     FM041500 29009G15KT P6SM SCT050